sensor_id;sensor_type;location;lat;lon;timestamp;temperature;humidity
30150;DHT22;16962;48.646;9.026;2023-04-01T00:02:29;6.90;99.90
30150;DHT22;16962;48.646;9.026;2023-04-01T00:05:18;6.90;99.90
30150;DHT22;16962;48.646;9.026;2023-04-01T00:08:11;6.90;1.00
30150;DHT22;16962;48.646;9.026;2023-04-01T00:10:58;6.80;99.90
30150;DHT22;16962;48.646;9.026;2023-04-01T00:13:45;6.80;99.90
30150;DHT22;16962;48.646;9.026;2023-04-01T00:16:33;6.80;94.10
30150;DHT22;16962;48.646;9.026;2023-04-01T00:19:23;6.80;1.00
30150;DHT22;16962;48.646;9.026;2023-04-01T00:22:16;6.80;1.00
30150;DHT22;16962;48.646;9.026;2023-04-01T00:25:05;6.80;1.00
30150;DHT22;16962;48.646;9.026;2023-04-01T00:27:52;6.80;1.00
30150;DHT22;16962;48.646;9.026;2023-04-01T00:30:39;6.80;99.90
30150;DHT22;16962;48.646;9.026;2023-04-01T00:33:29;6.90;99.90
30150;DHT22;16962;48.646;9.026;2023-04-01T00:36:20;6.80;99.90
30150;DHT22;16962;48.646;9.026;2023-04-01T00:39:10;6.80;1.00
30150;DHT22;16962;48.646;9.026;2023-04-01T00:41:58;6.80;99.90
30150;DHT22;16962;48.646;9.026;2023-04-01T00:44:54;6.80;99.90
30150;DHT22;16962;48.646;9.026;2023-04-01T00:47:44;6.80;1.00
30150;DHT22;16962;48.646;9.026;2023-04-01T00:50:34;6.80;99.90
30150;DHT22;16962;48.646;9.026;2023-04-01T00:53:23;6.80;1.00
30150;DHT22;16962;48.646;9.026;2023-04-01T00:56:13;6.80;1.00
30150;DHT22;16962;48.646;9.026;2023-04-01T00:59:11;6.80;1.00
30150;DHT22;16962;48.646;9.026;2023-04-01T01:02:08;6.70;99.90
30150;DHT22;16962;48.646;9.026;2023-04-01T01:04:58;6.70;99.90
30150;DHT22;16962;48.646;9.026;2023-04-01T01:08:13;6.70;99.90
30150;DHT22;16962;48.646;9.026;2023-04-01T01:11:10;6.70;99.90
30150;DHT22;16962;48.646;9.026;2023-04-01T01:15:05;6.70;99.90
30150;DHT22;16962;48.646;9.026;2023-04-01T01:24:36;6.70;39.70
30150;DHT22;16962;48.646;9.026;2023-04-01T01:27:28;6.70;1.00
30150;DHT22;16962;48.646;9.026;2023-04-01T01:30:57;6.70;99.90
30150;DHT22;16962;48.646;9.026;2023-04-01T01:37:16;6.70;99.90
30150;DHT22;16962;48.646;9.026;2023-04-01T01:40:07;6.70;99.90
30150;DHT22;16962;48.646;9.026;2023-04-01T01:43:08;6.70;99.90
30150;DHT22;16962;48.646;9.026;2023-04-01T01:45:59;6.70;1.00
30150;DHT22;16962;48.646;9.026;2023-04-01T01:48:47;6.60;99.90
30150;DHT22;16962;48.646;9.026;2023-04-01T01:51:39;6.60;1.00
30150;DHT22;16962;48.646;9.026;2023-04-01T01:54:35;6.60;1.00
30150;DHT22;16962;48.646;9.026;2023-04-01T01:57:29;6.60;1.00
30150;DHT22;16962;48.646;9.026;2023-04-01T02:00:19;6.50;1.00
30150;DHT22;16962;48.646;9.026;2023-04-01T02:03:07;6.50;1.00
30150;DHT22;16962;48.646;9.026;2023-04-01T02:05:56;6.50;99.90
30150;DHT22;16962;48.646;9.026;2023-04-01T02:09:07;6.50;99.90
30150;DHT22;16962;48.646;9.026;2023-04-01T02:12:04;6.50;99.90
30150;DHT22;16962;48.646;9.026;2023-04-01T02:17:52;6.50;1.00
30150;DHT22;16962;48.646;9.026;2023-04-01T02:20:42;6.40;1.00
30150;DHT22;16962;48.646;9.026;2023-04-01T02:23:32;6.40;99.90
30150;DHT22;16962;48.646;9.026;2023-04-01T02:26:25;6.40;99.90
30150;DHT22;16962;48.646;9.026;2023-04-01T02:29:13;6.40;1.00
30150;DHT22;16962;48.646;9.026;2023-04-01T02:32:02;6.40;99.90
30150;DHT22;16962;48.646;9.026;2023-04-01T02:34:52;6.40;99.90
30150;DHT22;16962;48.646;9.026;2023-04-01T02:37:40;6.40;99.90
30150;DHT22;16962;48.646;9.026;2023-04-01T02:40:29;6.40;1.00
30150;DHT22;16962;48.646;9.026;2023-04-01T02:43:17;6.40;78.60
30150;DHT22;16962;48.646;9.026;2023-04-01T02:46:06;6.40;27.50
30150;DHT22;16962;48.646;9.026;2023-04-01T02:48:54;6.30;99.90
30150;DHT22;16962;48.646;9.026;2023-04-01T02:51:43;6.30;99.90
30150;DHT22;16962;48.646;9.026;2023-04-01T02:54:33;6.30;99.90
30150;DHT22;16962;48.646;9.026;2023-04-01T02:57:21;6.30;99.90
30150;DHT22;16962;48.646;9.026;2023-04-01T03:00:17;6.30;99.90
30150;DHT22;16962;48.646;9.026;2023-04-01T03:03:04;6.30;99.90
30150;DHT22;16962;48.646;9.026;2023-04-01T03:05:55;6.20;99.90
30150;DHT22;16962;48.646;9.026;2023-04-01T03:08:45;6.20;99.90
30150;DHT22;16962;48.646;9.026;2023-04-01T03:11:33;6.20;1.00
30150;DHT22;16962;48.646;9.026;2023-04-01T03:14:22;6.20;99.90
30150;DHT22;16962;48.646;9.026;2023-04-01T03:17:11;6.20;99.90
30150;DHT22;16962;48.646;9.026;2023-04-01T03:19:59;6.10;1.00
30150;DHT22;16962;48.646;9.026;2023-04-01T03:22:49;6.00;1.00
30150;DHT22;16962;48.646;9.026;2023-04-01T03:25:38;6.10;92.40
30150;DHT22;16962;48.646;9.026;2023-04-01T03:28:28;6.00;11.20
30150;DHT22;16962;48.646;9.026;2023-04-01T03:31:18;6.00;40.40
30150;DHT22;16962;48.646;9.026;2023-04-01T03:34:09;6.00;1.00
30150;DHT22;16962;48.646;9.026;2023-04-01T03:36:57;6.00;99.90
30150;DHT22;16962;48.646;9.026;2023-04-01T03:39:44;6.00;99.90
30150;DHT22;16962;48.646;9.026;2023-04-01T03:42:32;6.00;99.90
30150;DHT22;16962;48.646;9.026;2023-04-01T03:45:22;6.00;1.00
30150;DHT22;16962;48.646;9.026;2023-04-01T03:48:09;6.00;99.90
30150;DHT22;16962;48.646;9.026;2023-04-01T03:50:56;6.00;99.90
30150;DHT22;16962;48.646;9.026;2023-04-01T03:53:44;6.00;99.90
30150;DHT22;16962;48.646;9.026;2023-04-01T03:56:32;5.90;88.70
30150;DHT22;16962;48.646;9.026;2023-04-01T03:59:20;5.90;99.90
30150;DHT22;16962;48.646;9.026;2023-04-01T04:02:38;5.90;1.00
30150;DHT22;16962;48.646;9.026;2023-04-01T04:05:28;5.80;1.00
30150;DHT22;16962;48.646;9.026;2023-04-01T04:08:17;5.80;1.00
30150;DHT22;16962;48.646;9.026;2023-04-01T04:11:05;5.80;1.00
30150;DHT22;16962;48.646;9.026;2023-04-01T04:14:01;5.70;99.90
30150;DHT22;16962;48.646;9.026;2023-04-01T04:16:52;5.70;54.80
30150;DHT22;16962;48.646;9.026;2023-04-01T04:19:39;5.60;99.90
30150;DHT22;16962;48.646;9.026;2023-04-01T04:22:27;5.60;99.90
30150;DHT22;16962;48.646;9.026;2023-04-01T04:28:47;5.50;99.90
30150;DHT22;16962;48.646;9.026;2023-04-01T04:31:35;5.50;1.00
30150;DHT22;16962;48.646;9.026;2023-04-01T04:34:28;5.50;32.10
30150;DHT22;16962;48.646;9.026;2023-04-01T04:37:27;5.50;99.90
30150;DHT22;16962;48.646;9.026;2023-04-01T04:40:15;5.60;99.90
30150;DHT22;16962;48.646;9.026;2023-04-01T04:43:02;5.60;99.90
30150;DHT22;16962;48.646;9.026;2023-04-01T04:45:52;5.70;99.90
30150;DHT22;16962;48.646;9.026;2023-04-01T04:48:42;5.70;99.90
30150;DHT22;16962;48.646;9.026;2023-04-01T04:51:32;5.80;99.90
30150;DHT22;16962;48.646;9.026;2023-04-01T04:54:30;5.90;1.00
30150;DHT22;16962;48.646;9.026;2023-04-01T04:57:17;6.10;99.90
30150;DHT22;16962;48.646;9.026;2023-04-01T05:00:06;6.10;99.90
30150;DHT22;16962;48.646;9.026;2023-04-01T05:02:54;6.10;99.90
30150;DHT22;16962;48.646;9.026;2023-04-01T05:05:48;6.10;99.90
30150;DHT22;16962;48.646;9.026;2023-04-01T05:08:41;6.20;1.00
30150;DHT22;16962;48.646;9.026;2023-04-01T05:11:28;6.20;24.70
30150;DHT22;16962;48.646;9.026;2023-04-01T05:14:16;6.20;99.90
30150;DHT22;16962;48.646;9.026;2023-04-01T05:17:03;6.30;1.00
30150;DHT22;16962;48.646;9.026;2023-04-01T05:19:50;6.50;1.00
30150;DHT22;16962;48.646;9.026;2023-04-01T05:22:39;6.50;99.90
30150;DHT22;16962;48.646;9.026;2023-04-01T05:25:43;6.50;1.00
30150;DHT22;16962;48.646;9.026;2023-04-01T05:28:40;6.50;99.90
30150;DHT22;16962;48.646;9.026;2023-04-01T05:31:29;6.60;22.10
30150;DHT22;16962;48.646;9.026;2023-04-01T05:34:16;6.60;1.00
30150;DHT22;16962;48.646;9.026;2023-04-01T05:37:06;6.60;1.00
30150;DHT22;16962;48.646;9.026;2023-04-01T05:39:57;6.70;99.90
30150;DHT22;16962;48.646;9.026;2023-04-01T05:42:47;6.70;70.00
30150;DHT22;16962;48.646;9.026;2023-04-01T05:45:34;6.70;1.00
30150;DHT22;16962;48.646;9.026;2023-04-01T05:48:22;6.70;99.90
30150;DHT22;16962;48.646;9.026;2023-04-01T05:51:16;6.80;99.90
30150;DHT22;16962;48.646;9.026;2023-04-01T05:54:05;6.80;99.90
30150;DHT22;16962;48.646;9.026;2023-04-01T05:56:52;6.90;58.00
30150;DHT22;16962;48.646;9.026;2023-04-01T05:59:42;6.80;6.20
30150;DHT22;16962;48.646;9.026;2023-04-01T06:02:30;6.90;1.00
30150;DHT22;16962;48.646;9.026;2023-04-01T06:05:38;6.90;1.00
30150;DHT22;16962;48.646;9.026;2023-04-01T06:08:25;6.90;1.00
30150;DHT22;16962;48.646;9.026;2023-04-01T06:11:19;7.00;99.90
30150;DHT22;16962;48.646;9.026;2023-04-01T06:14:33;7.00;99.90
30150;DHT22;16962;48.646;9.026;2023-04-01T06:17:41;6.90;99.90
30150;DHT22;16962;48.646;9.026;2023-04-01T06:23:47;7.00;99.90
30150;DHT22;16962;48.646;9.026;2023-04-01T06:36:45;7.10;99.90
30150;DHT22;16962;48.646;9.026;2023-04-01T06:52:11;7.00;99.90
30150;DHT22;16962;48.646;9.026;2023-04-01T06:58:23;7.00;99.90
30150;DHT22;16962;48.646;9.026;2023-04-01T07:01:21;7.00;99.90
30150;DHT22;16962;48.646;9.026;2023-04-01T07:04:26;7.10;99.90
30150;DHT22;16962;48.646;9.026;2023-04-01T07:13:39;7.10;99.90
30150;DHT22;16962;48.646;9.026;2023-04-01T07:16:36;7.10;99.90
30150;DHT22;16962;48.646;9.026;2023-04-01T07:19:42;7.10;99.90
30150;DHT22;16962;48.646;9.026;2023-04-01T07:22:36;7.20;1.00
30150;DHT22;16962;48.646;9.026;2023-04-01T07:25:31;7.20;1.00
30150;DHT22;16962;48.646;9.026;2023-04-01T07:28:21;7.20;99.90
30150;DHT22;16962;48.646;9.026;2023-04-01T07:31:25;7.20;1.00
30150;DHT22;16962;48.646;9.026;2023-04-01T07:34:25;7.30;1.00
30150;DHT22;16962;48.646;9.026;2023-04-01T07:43:58;7.40;1.00
30150;DHT22;16962;48.646;9.026;2023-04-01T07:54:32;7.60;99.90
30150;DHT22;16962;48.646;9.026;2023-04-01T08:00:30;7.70;99.90
30150;DHT22;16962;48.646;9.026;2023-04-01T08:06:53;7.60;99.90
30150;DHT22;16962;48.646;9.026;2023-04-01T08:10:05;7.50;99.90
30150;DHT22;16962;48.646;9.026;2023-04-01T08:16:05;7.40;78.90
30150;DHT22;16962;48.646;9.026;2023-04-01T08:21:52;7.40;99.90
30150;DHT22;16962;48.646;9.026;2023-04-01T08:24:46;7.50;99.90
30150;DHT22;16962;48.646;9.026;2023-04-01T08:27:43;7.50;99.90
30150;DHT22;16962;48.646;9.026;2023-04-01T08:31:04;7.50;99.90
30150;DHT22;16962;48.646;9.026;2023-04-01T08:33:54;7.50;99.90
30150;DHT22;16962;48.646;9.026;2023-04-01T08:36:51;7.40;1.00
30150;DHT22;16962;48.646;9.026;2023-04-01T08:39:47;7.30;99.90
30150;DHT22;16962;48.646;9.026;2023-04-01T08:45:56;7.20;99.90
30150;DHT22;16962;48.646;9.026;2023-04-01T08:52:35;7.10;1.00
30150;DHT22;16962;48.646;9.026;2023-04-01T08:55:51;7.10;99.90
30150;DHT22;16962;48.646;9.026;2023-04-01T09:24:32;8.10;1.00
30150;DHT22;16962;48.646;9.026;2023-04-01T09:27:29;8.10;99.90
30150;DHT22;16962;48.646;9.026;2023-04-01T09:36:46;8.30;99.90
30150;DHT22;16962;48.646;9.026;2023-04-01T10:01:02;7.80;1.00
30150;DHT22;16962;48.646;9.026;2023-04-01T10:20:01;7.80;99.90
30150;DHT22;16962;48.646;9.026;2023-04-01T10:28:42;8.10;1.00
30150;DHT22;16962;48.646;9.026;2023-04-01T10:41:27;8.60;1.00
30150;DHT22;16962;48.646;9.026;2023-04-01T10:44:36;8.80;1.00
30150;DHT22;16962;48.646;9.026;2023-04-01T11:19:46;9.70;1.00
30150;DHT22;16962;48.646;9.026;2023-04-01T11:56:22;9.50;99.90
30150;DHT22;16962;48.646;9.026;2023-04-01T12:15:48;10.30;99.90
30150;DHT22;16962;48.646;9.026;2023-04-01T12:18:52;10.40;99.90
30150;DHT22;16962;48.646;9.026;2023-04-01T12:24:58;10.10;99.90
30150;DHT22;16962;48.646;9.026;2023-04-01T12:28:06;9.70;99.90
30150;DHT22;16962;48.646;9.026;2023-04-01T12:37:21;8.80;99.90
30150;DHT22;16962;48.646;9.026;2023-04-01T12:53:37;10.50;99.90
30150;DHT22;16962;48.646;9.026;2023-04-01T13:13:04;11.60;1.00
30150;DHT22;16962;48.646;9.026;2023-04-01T13:16:26;11.60;1.00
30150;DHT22;16962;48.646;9.026;2023-04-01T13:19:38;11.60;1.00
30150;DHT22;16962;48.646;9.026;2023-04-01T13:22:45;11.10;1.00
30150;DHT22;16962;48.646;9.026;2023-04-01T13:29:38;10.40;1.00
30150;DHT22;16962;48.646;9.026;2023-04-01T13:39:01;10.50;1.00
30150;DHT22;16962;48.646;9.026;2023-04-01T13:55:05;9.80;1.00
30150;DHT22;16962;48.646;9.026;2023-04-01T14:07:35;10.10;18.70
30150;DHT22;16962;48.646;9.026;2023-04-01T14:13:43;10.00;13.80
30150;DHT22;16962;48.646;9.026;2023-04-01T14:23:34;9.40;99.90
30150;DHT22;16962;48.646;9.026;2023-04-01T14:27:02;9.50;99.90
30150;DHT22;16962;48.646;9.026;2023-04-01T14:49:04;10.10;1.00
30150;DHT22;16962;48.646;9.026;2023-04-01T14:52:30;9.90;1.00
30150;DHT22;16962;48.646;9.026;2023-04-01T14:58:47;9.70;1.00
30150;DHT22;16962;48.646;9.026;2023-04-01T15:17:51;9.50;1.00
30150;DHT22;16962;48.646;9.026;2023-04-01T15:21:05;9.40;1.00
30150;DHT22;16962;48.646;9.026;2023-04-01T15:27:49;9.60;1.00
30150;DHT22;16962;48.646;9.026;2023-04-01T15:34:06;9.70;1.00
30150;DHT22;16962;48.646;9.026;2023-04-01T15:46:36;9.20;99.90
30150;DHT22;16962;48.646;9.026;2023-04-01T15:52:24;8.90;99.90
30150;DHT22;16962;48.646;9.026;2023-04-01T16:12:00;8.60;1.00
30150;DHT22;16962;48.646;9.026;2023-04-01T16:30:32;9.00;99.90
30150;DHT22;16962;48.646;9.026;2023-04-01T16:36:52;9.10;99.90
30150;DHT22;16962;48.646;9.026;2023-04-01T16:43:09;9.10;99.90
30150;DHT22;16962;48.646;9.026;2023-04-01T16:49:31;9.00;99.90
30150;DHT22;16962;48.646;9.026;2023-04-01T16:52:36;9.00;99.90
30150;DHT22;16962;48.646;9.026;2023-04-01T16:55:57;9.00;99.90
30150;DHT22;16962;48.646;9.026;2023-04-01T16:59:27;8.90;99.90
30150;DHT22;16962;48.646;9.026;2023-04-01T17:02:23;8.90;99.90
30150;DHT22;16962;48.646;9.026;2023-04-01T17:05:15;8.80;99.90
30150;DHT22;16962;48.646;9.026;2023-04-01T17:17:58;8.70;99.90
30150;DHT22;16962;48.646;9.026;2023-04-01T17:30:46;8.50;99.90
30150;DHT22;16962;48.646;9.026;2023-04-01T17:40:23;8.40;99.90
30150;DHT22;16962;48.646;9.026;2023-04-01T17:50:20;8.40;99.90
30150;DHT22;16962;48.646;9.026;2023-04-01T18:13:16;8.20;99.90
30150;DHT22;16962;48.646;9.026;2023-04-01T18:16:43;8.10;42.10
30150;DHT22;16962;48.646;9.026;2023-04-01T18:25:38;7.70;99.90
30150;DHT22;16962;48.646;9.026;2023-04-01T18:28:32;7.50;1.00
30150;DHT22;16962;48.646;9.026;2023-04-01T18:31:24;7.20;1.00
30150;DHT22;16962;48.646;9.026;2023-04-01T18:37:34;7.00;99.90
30150;DHT22;16962;48.646;9.026;2023-04-01T18:53:13;6.70;99.90
30150;DHT22;16962;48.646;9.026;2023-04-01T18:56:06;6.60;99.90
30150;DHT22;16962;48.646;9.026;2023-04-01T19:08:33;6.50;1.00
30150;DHT22;16962;48.646;9.026;2023-04-01T19:11:36;6.50;1.00
30150;DHT22;16962;48.646;9.026;2023-04-01T19:27:26;6.30;77.80
30150;DHT22;16962;48.646;9.026;2023-04-01T19:30:32;6.20;99.90
30150;DHT22;16962;48.646;9.026;2023-04-01T19:42:31;6.00;99.90
30150;DHT22;16962;48.646;9.026;2023-04-01T19:51:51;5.80;99.90
30150;DHT22;16962;48.646;9.026;2023-04-01T19:58:21;5.60;1.00
30150;DHT22;16962;48.646;9.026;2023-04-01T20:02:15;5.50;68.90
30150;DHT22;16962;48.646;9.026;2023-04-01T20:04:44;5.50;99.90
30150;DHT22;16962;48.646;9.026;2023-04-01T20:07:45;5.50;1.00
30150;DHT22;16962;48.646;9.026;2023-04-01T20:14:03;5.70;13.00
30150;DHT22;16962;48.646;9.026;2023-04-01T20:20:19;5.80;87.40
30150;DHT22;16962;48.646;9.026;2023-04-01T20:26:03;5.80;99.90
30150;DHT22;16962;48.646;9.026;2023-04-01T20:33:20;5.90;99.90
30150;DHT22;16962;48.646;9.026;2023-04-01T20:36:06;6.00;99.90
30150;DHT22;16962;48.646;9.026;2023-04-01T20:51:23;6.30;99.90
30150;DHT22;16962;48.646;9.026;2023-04-01T21:34:01;6.60;99.90
30150;DHT22;16962;48.646;9.026;2023-04-01T21:46:31;6.60;99.90
30150;DHT22;16962;48.646;9.026;2023-04-01T22:05:40;6.60;99.90
30150;DHT22;16962;48.646;9.026;2023-04-01T22:14:59;6.60;99.90
30150;DHT22;16962;48.646;9.026;2023-04-01T22:17:54;6.60;1.00
30150;DHT22;16962;48.646;9.026;2023-04-01T22:30:27;6.50;1.00
30150;DHT22;16962;48.646;9.026;2023-04-01T22:42:25;6.40;1.00
30150;DHT22;16962;48.646;9.026;2023-04-01T22:54:54;6.10;1.00
30150;DHT22;16962;48.646;9.026;2023-04-01T22:57:51;6.00;47.70
30150;DHT22;16962;48.646;9.026;2023-04-01T23:00:50;6.00;99.90
30150;DHT22;16962;48.646;9.026;2023-04-01T23:04:00;5.90;99.90
30150;DHT22;16962;48.646;9.026;2023-04-01T23:06:56;5.80;99.90
30150;DHT22;16962;48.646;9.026;2023-04-01T23:09:45;5.80;99.90
30150;DHT22;16962;48.646;9.026;2023-04-01T23:12:34;5.70;1.00
30150;DHT22;16962;48.646;9.026;2023-04-01T23:15:22;5.60;99.90
30150;DHT22;16962;48.646;9.026;2023-04-01T23:21:24;5.50;1.00
30150;DHT22;16962;48.646;9.026;2023-04-01T23:27:05;5.50;51.00
30150;DHT22;16962;48.646;9.026;2023-04-01T23:29:54;5.50;99.90
30150;DHT22;16962;48.646;9.026;2023-04-01T23:32:41;5.50;99.90
30150;DHT22;16962;48.646;9.026;2023-04-01T23:35:32;5.50;99.90
30150;DHT22;16962;48.646;9.026;2023-04-01T23:38:23;5.50;99.90
30150;DHT22;16962;48.646;9.026;2023-04-01T23:41:25;5.50;1.00
30150;DHT22;16962;48.646;9.026;2023-04-01T23:44:13;5.50;1.00
30150;DHT22;16962;48.646;9.026;2023-04-01T23:47:03;5.60;1.00
30150;DHT22;16962;48.646;9.026;2023-04-01T23:50:01;5.60;99.90
30150;DHT22;16962;48.646;9.026;2023-04-01T23:53:21;5.60;1.00
30150;DHT22;16962;48.646;9.026;2023-04-01T23:56:10;5.60;1.00
30150;DHT22;16962;48.646;9.026;2023-04-01T23:59:01;5.60;1.00
